createdAt,value
2023-01-19T00:02:39.330Z,95559.78
2023-01-19T00:05:44.540Z,95558.25
2023-01-19T00:08:50.236Z,95556.47
2023-01-19T00:11:54.767Z,95549.06
2023-01-19T00:14:59.327Z,95564.97
2023-01-19T00:18:04.743Z,95564.16
2023-01-19T00:21:09.336Z,95560.44
2023-01-19T00:24:14.117Z,95547.19
2023-01-19T00:27:18.660Z,95568.22
2023-01-19T00:30:23.214Z,95568.19
2023-01-19T00:33:28.028Z,95578.75
2023-01-19T00:36:32.723Z,95587.97
2023-01-19T00:39:37.332Z,95590.94
2023-01-19T00:42:44.217Z,95599.19
2023-01-19T00:45:48.798Z,95599.44
2023-01-19T00:48:53.280Z,95609.28
2023-01-19T00:51:57.821Z,95613.63
2023-01-19T00:55:02.384Z,95627.00
2023-01-19T00:58:07.228Z,95606.75
2023-01-19T01:01:12.072Z,95643.25
2023-01-19T01:04:16.701Z,95654.06
2023-01-19T01:07:22.293Z,95650.78
2023-01-19T01:10:28.857Z,95657.56
2023-01-19T01:13:33.795Z,95660.81
2023-01-19T01:16:38.844Z,95667.75
2023-01-19T01:19:43.401Z,95665.06
2023-01-19T01:22:50.933Z,95675.78
2023-01-19T01:25:55.747Z,95661.78
2023-01-19T01:29:00.496Z,95677.31
2023-01-19T01:32:05.097Z,95672.78
2023-01-19T01:35:11.060Z,95663.13
2023-01-19T01:38:16.757Z,95664.97
2023-01-19T01:41:21.976Z,95645.59
2023-01-19T01:44:31.713Z,95661.41
2023-01-19T01:47:58.336Z,95641.94
2023-01-19T01:51:26.021Z,95657.28
2023-01-19T01:54:33.480Z,95644.63
2023-01-19T01:57:42.017Z,95649.34
2023-01-19T02:01:05.296Z,95667.41
2023-01-19T02:04:09.909Z,95663.19
2023-01-19T02:07:39.774Z,95658.75
2023-01-19T02:11:02.824Z,95651.63
2023-01-19T02:14:07.343Z,95655.06
2023-01-19T02:17:11.945Z,95647.41
2023-01-19T02:20:17.702Z,95643.78
2023-01-19T02:23:49.023Z,95648.19
2023-01-19T02:26:53.784Z,95657.56
2023-01-19T02:30:00.261Z,95648.19
2023-01-19T02:33:04.825Z,95652.22
2023-01-19T02:36:15.163Z,95648.19
2023-01-19T02:39:25.650Z,95645.47
2023-01-19T02:42:43.552Z,95643.19
2023-01-19T02:45:48.232Z,95637.53
2023-01-19T02:48:52.830Z,95647.78
2023-01-19T02:51:58.486Z,95647.72
2023-01-19T02:55:18.437Z,95646.75
2023-01-19T02:58:37.376Z,95647.66
2023-01-19T03:01:50.427Z,95651.28
2023-01-19T03:05:04.936Z,95650.31
2023-01-19T03:08:37.917Z,95656.38
2023-01-19T03:11:50.130Z,95653.81
2023-01-19T03:15:00.706Z,95649.50
2023-01-19T03:18:10.253Z,95636.94
2023-01-19T03:21:15.822Z,95653.81
2023-01-19T03:24:22.771Z,95626.81
2023-01-19T03:27:32.155Z,95654.69
2023-01-19T03:30:40.502Z,95654.81
2023-01-19T03:33:56.048Z,95655.59
2023-01-19T03:37:03.731Z,95650.34
2023-01-19T03:40:09.230Z,95665.81
2023-01-19T03:43:16.692Z,95664.06
2023-01-19T03:46:22.865Z,95663.97
2023-01-19T03:49:31.177Z,95660.63
2023-01-19T03:52:35.640Z,95669.84
2023-01-19T03:55:43.097Z,95674.31
2023-01-19T03:58:47.814Z,95678.75
2023-01-19T04:01:52.385Z,95691.13
2023-01-19T04:04:58.745Z,95699.03
2023-01-19T04:08:03.364Z,95700.56
2023-01-19T04:11:08.315Z,95697.16
2023-01-19T04:14:13.181Z,95699.88
2023-01-19T04:17:17.716Z,95699.09
2023-01-19T04:20:22.294Z,95710.88
2023-01-19T04:23:27.249Z,95721.59
2023-01-19T04:26:31.845Z,95716.56
2023-01-19T04:29:36.343Z,95718.44
2023-01-19T04:32:40.971Z,95720.03
2023-01-19T04:35:46.736Z,95725.28
2023-01-19T04:38:51.372Z,95724.38
2023-01-19T04:41:57.473Z,95732.84
2023-01-19T04:45:02.026Z,95725.19
2023-01-19T04:48:06.603Z,95732.97
2023-01-19T04:51:11.142Z,95733.53
2023-01-19T04:54:15.640Z,95731.84
2023-01-19T04:57:20.202Z,95742.13
2023-01-19T05:00:24.754Z,95745.41
2023-01-19T05:03:29.394Z,95752.13
2023-01-19T05:06:35.809Z,95755.66
2023-01-19T05:09:40.449Z,95749.72
2023-01-19T05:12:44.927Z,95748.25
2023-01-19T05:15:50.281Z,95753.06
2023-01-19T05:18:54.993Z,95755.81
2023-01-19T05:21:59.489Z,95765.22
2023-01-19T05:25:04.270Z,95761.81
2023-01-19T05:31:29.040Z,95765.97
2023-01-19T05:34:33.707Z,95763.50
2023-01-19T05:37:38.247Z,95769.44
2023-01-19T05:40:43.219Z,95771.88
2023-01-19T05:43:47.769Z,95773.63
2023-01-19T05:46:52.443Z,95774.53
2023-01-19T05:49:57.351Z,95783.78
2023-01-19T05:53:03.361Z,95781.25
2023-01-19T05:56:09.533Z,95784.47
2023-01-19T05:59:15.287Z,95789.72
2023-01-19T06:02:19.828Z,95787.13
2023-01-19T06:05:25.547Z,95766.16
2023-01-19T06:08:30.219Z,95792.25
2023-01-19T06:11:34.744Z,95794.84
2023-01-19T06:14:40.618Z,95799.97
2023-01-19T06:17:45.235Z,95810.22
2023-01-19T06:20:49.815Z,95819.63
2023-01-19T06:23:54.394Z,95813.50
2023-01-19T06:27:00.383Z,95801.63
2023-01-19T06:30:06.394Z,95827.28
2023-01-19T06:33:10.972Z,95826.34
2023-01-19T06:36:16.948Z,95812.06
2023-01-19T06:39:21.487Z,95834.06
2023-01-19T06:42:25.950Z,95839.16
2023-01-19T06:45:30.471Z,95845.84
2023-01-19T06:48:35.022Z,95852.56
2023-01-19T06:51:40.698Z,95850.88
2023-01-19T06:54:46.086Z,95852.72
2023-01-19T06:57:57.707Z,95856.03
2023-01-19T07:01:03.862Z,95857.78
2023-01-19T07:04:08.436Z,95853.47
2023-01-19T07:07:12.950Z,95866.28
2023-01-19T07:10:17.564Z,95868.75
2023-01-19T07:13:22.234Z,95862.81
2023-01-19T07:16:28.815Z,95863.56
2023-01-19T07:19:34.868Z,95867.91
2023-01-19T07:22:39.990Z,95871.31
2023-01-19T07:25:46.045Z,95878.16
2023-01-19T07:28:51.760Z,95894.88
2023-01-19T07:31:56.335Z,95893.34
2023-01-19T07:35:00.927Z,95907.53
2023-01-19T07:38:05.541Z,95910.94
2023-01-19T07:41:11.796Z,95917.75
2023-01-19T07:44:16.547Z,95921.16
2023-01-19T07:47:21.095Z,95919.53
2023-01-19T07:50:27.668Z,95928.16
2023-01-19T07:53:32.691Z,95926.44
2023-01-19T07:56:37.253Z,95921.25
2023-01-19T07:59:41.768Z,95927.19
2023-01-19T08:02:47.153Z,95925.28
2023-01-19T08:05:53.041Z,95929.75
2023-01-19T08:08:57.576Z,95924.56
2023-01-19T08:12:02.086Z,95930.56
2023-01-19T08:15:07.169Z,95939.91
2023-01-19T08:18:11.781Z,95943.41
2023-01-19T08:21:16.419Z,95939.06
2023-01-19T08:24:23.830Z,95934.84
2023-01-19T08:27:28.831Z,95945.03
2023-01-19T08:30:34.062Z,95928.19
2023-01-19T08:33:38.662Z,95951.03
2023-01-19T08:36:43.233Z,95943.41
2023-01-19T08:39:47.758Z,95948.50
2023-01-19T08:42:52.347Z,95951.03
2023-01-19T08:45:56.898Z,95943.44
2023-01-19T08:49:01.438Z,95947.69
2023-01-19T08:52:06.001Z,95945.94
2023-01-19T08:55:11.831Z,95948.47
2023-01-19T08:58:16.589Z,95957.00
2023-01-19T09:01:22.281Z,95956.91
2023-01-19T09:04:26.970Z,95962.84
2023-01-19T09:07:33.887Z,95974.03
2023-01-19T09:10:45.878Z,95978.13
2023-01-19T09:13:50.346Z,95985.91
2023-01-19T09:16:59.020Z,95966.38
2023-01-19T09:20:05.823Z,95992.69
2023-01-19T09:23:11.596Z,95997.78
2023-01-19T09:26:16.573Z,96006.28
2023-01-19T09:29:21.697Z,96008.75
2023-01-19T09:32:26.376Z,96012.16
2023-01-19T09:35:31.438Z,96012.22
2023-01-19T09:38:36.631Z,96017.25
2023-01-19T09:41:47.078Z,96024.72
2023-01-19T09:44:53.188Z,96027.44
2023-01-19T09:47:59.324Z,96023.94
2023-01-19T09:51:10.289Z,96025.66
2023-01-19T09:54:29.840Z,96012.97
2023-01-19T09:57:35.719Z,96021.50
2023-01-19T10:00:42.831Z,96025.69
2023-01-19T10:03:53.446Z,96026.59
2023-01-19T10:07:19.341Z,96024.88
2023-01-19T10:10:28.890Z,96015.50
2023-01-19T10:13:46.999Z,96012.06
2023-01-19T10:17:29.890Z,96014.59
2023-01-19T10:20:51.132Z,96014.72
2023-01-19T10:23:58.746Z,96007.88
2023-01-19T10:27:10.292Z,96013.03
2023-01-19T10:30:23.247Z,96006.16
2023-01-19T10:33:28.081Z,96006.13
2023-01-19T10:36:38.150Z,96001.00
2023-01-19T10:39:47.296Z,95994.94
2023-01-19T10:42:51.789Z,95990.75
2023-01-19T10:45:58.123Z,95953.34
2023-01-19T10:49:03.214Z,95996.66
2023-01-19T10:52:19.112Z,96005.31
2023-01-19T10:55:29.610Z,96010.34
2023-01-19T10:58:35.082Z,96000.22
2023-01-19T11:01:39.768Z,95999.28
2023-01-19T11:04:50.118Z,96002.53
2023-01-19T11:07:55.284Z,96000.91
2023-01-19T11:11:08.023Z,95999.00
2023-01-19T11:14:22.559Z,95999.03
2023-01-19T11:17:28.503Z,95998.88
2023-01-19T11:20:44.036Z,95995.50
2023-01-19T11:23:52.094Z,95996.50
2023-01-19T11:27:02.858Z,95981.75
2023-01-19T11:30:18.143Z,95998.28
2023-01-19T11:33:37.790Z,95996.47
2023-01-19T11:37:01.890Z,95999.03
2023-01-19T11:40:10.541Z,95999.81
2023-01-19T11:43:15.257Z,95983.78
2023-01-19T11:46:21.422Z,95991.34
2023-01-19T11:49:40.655Z,95981.94
2023-01-19T11:52:47.698Z,95982.09
2023-01-19T11:56:10.915Z,95969.41
2023-01-19T11:59:15.293Z,95979.56
2023-01-19T12:02:30.898Z,95975.06
2023-01-19T12:05:38.801Z,95984.41
2023-01-19T12:08:55.233Z,95973.44
2023-01-19T12:12:05.914Z,95977.63
2023-01-19T12:15:18.276Z,95967.56
2023-01-19T12:18:27.857Z,95967.66
2023-01-19T12:21:32.373Z,95972.69
2023-01-19T12:24:46.701Z,95969.19
2023-01-19T12:27:52.012Z,95949.69
2023-01-19T12:30:58.263Z,95967.25
2023-01-19T12:34:31.069Z,95965.56
2023-01-19T12:37:40.592Z,95965.44
2023-01-19T12:40:45.403Z,95961.94
2023-01-19T12:44:16.416Z,95965.38
2023-01-19T12:47:22.806Z,95961.38
2023-01-19T12:50:31.823Z,95961.34
2023-01-19T12:53:36.561Z,95955.59
2023-01-19T12:56:41.083Z,95955.53
2023-01-19T12:59:45.769Z,95951.81
2023-01-19T13:02:58.722Z,95951.81
2023-01-19T13:06:03.502Z,95951.34
2023-01-19T13:09:27.621Z,95947.34
2023-01-19T13:12:33.674Z,95954.16
2023-01-19T13:15:39.248Z,95921.97
2023-01-19T13:18:50.286Z,95943.84
2023-01-19T13:21:54.971Z,95949.19
2023-01-19T13:25:07.570Z,95942.84
2023-01-19T13:28:16.645Z,95948.81
2023-01-19T13:31:22.810Z,95953.97
2023-01-19T13:34:28.533Z,95951.06
2023-01-19T13:37:39.764Z,95932.53
2023-01-19T13:40:45.867Z,95956.72
2023-01-19T13:43:58.502Z,95948.78
2023-01-19T13:47:04.145Z,95955.03
2023-01-19T13:50:09.672Z,95963.00
2023-01-19T13:53:23.471Z,95964.13
2023-01-19T13:56:29.746Z,95974.44
2023-01-19T13:59:34.423Z,95965.81
2023-01-19T14:02:59.058Z,95970.16
2023-01-19T14:06:03.857Z,95974.09
2023-01-19T14:09:18.434Z,95973.16
2023-01-19T14:12:23.122Z,95975.75
2023-01-19T14:15:29.313Z,95979.47
2023-01-19T14:18:36.016Z,95983.06
2023-01-19T14:21:41.207Z,95982.00
2023-01-19T14:24:45.779Z,95965.41
2023-01-19T14:27:50.312Z,95987.94
2023-01-19T14:31:00.814Z,95987.84
2023-01-19T14:34:05.518Z,95980.59
2023-01-19T14:37:34.099Z,95982.41
2023-01-19T14:40:38.602Z,95978.72
2023-01-19T14:43:44.899Z,95982.97
2023-01-19T14:46:49.928Z,95984.69
2023-01-19T14:49:56.297Z,95991.09
2023-01-19T14:53:04.410Z,95999.44
2023-01-19T14:56:09.065Z,95996.06
2023-01-19T14:59:13.855Z,96000.53
2023-01-19T15:02:21.449Z,96001.97
2023-01-19T15:05:26.012Z,96002.81
2023-01-19T15:08:37.534Z,96003.81
2023-01-19T15:11:43.421Z,96003.69
2023-01-19T15:14:48.044Z,96005.91
2023-01-19T15:17:55.239Z,96009.66
2023-01-19T15:21:02.849Z,96004.50
2023-01-19T15:24:08.877Z,96011.41
2023-01-19T15:27:13.502Z,96017.16
2023-01-19T15:30:21.487Z,96022.38
2023-01-19T15:33:32.848Z,96016.44
2023-01-19T15:36:37.347Z,96020.56
2023-01-19T15:39:41.953Z,96021.09
2023-01-19T15:42:46.743Z,96014.47
2023-01-19T15:45:59.810Z,96027.53
2023-01-19T15:49:05.680Z,96028.25
2023-01-19T15:52:10.276Z,96028.38
2023-01-19T15:55:15.812Z,96023.25
2023-01-19T15:58:20.682Z,96027.50
2023-01-19T16:01:32.100Z,96016.63
2023-01-19T16:04:36.773Z,96030.28
2023-01-19T16:07:41.327Z,96034.53
2023-01-19T16:10:45.826Z,96030.56
2023-01-19T16:13:50.528Z,96039.59
2023-01-19T16:16:55.320Z,96037.78
2023-01-19T16:19:59.956Z,96039.53
2023-01-19T16:23:20.118Z,96041.41
2023-01-19T16:26:30.301Z,96042.97
2023-01-19T16:29:34.827Z,96045.75
2023-01-19T16:32:39.309Z,96043.00
2023-01-19T16:35:43.795Z,96055.91
2023-01-19T16:38:48.395Z,96053.34
2023-01-19T16:41:52.855Z,96056.69
2023-01-19T16:44:58.780Z,96058.44
2023-01-19T16:48:03.265Z,96060.31
2023-01-19T16:51:07.865Z,96065.22
2023-01-19T16:54:16.931Z,96064.34
2023-01-19T16:57:21.571Z,96061.19
2023-01-19T17:00:26.163Z,96075.63
2023-01-19T17:03:30.725Z,96065.44
2023-01-19T17:06:35.351Z,96073.06
2023-01-19T17:09:39.891Z,96073.00
2023-01-19T17:12:45.862Z,96017.75
2023-01-19T17:15:50.524Z,96065.44
2023-01-19T17:18:57.185Z,96073.75
2023-01-19T17:22:01.703Z,96072.13
2023-01-19T17:25:06.660Z,96075.44
2023-01-19T17:28:11.184Z,96073.91
2023-01-19T17:31:21.133Z,96063.59
2023-01-19T17:34:25.872Z,96074.56
2023-01-19T17:37:31.869Z,96023.75
2023-01-19T17:40:37.089Z,96074.66
2023-01-19T17:43:41.668Z,96066.97
2023-01-19T17:46:46.203Z,96075.41
2023-01-19T17:49:50.721Z,96070.34
2023-01-19T17:52:56.745Z,96080.50
2023-01-19T17:56:08.051Z,96067.63
2023-01-19T17:59:12.557Z,96073.84
2023-01-19T18:02:17.361Z,96075.53
2023-01-19T18:05:23.249Z,96073.84
2023-01-19T18:08:27.847Z,96076.19
2023-01-19T18:11:32.590Z,96078.91
2023-01-19T18:14:37.753Z,96059.38
2023-01-19T18:17:42.704Z,96080.72
2023-01-19T18:20:47.179Z,96072.19
2023-01-19T18:23:52.802Z,96075.53
2023-01-19T18:26:57.434Z,96074.78
2023-01-19T18:30:02.016Z,96078.84
2023-01-19T18:33:06.592Z,96073.91
2023-01-19T18:36:11.342Z,96077.38
2023-01-19T18:39:18.919Z,96045.97
2023-01-19T18:42:23.471Z,96073.91
2023-01-19T18:45:27.983Z,96079.09
2023-01-19T18:48:32.597Z,96075.00
2023-01-19T18:51:37.528Z,96069.72
2023-01-19T18:54:42.099Z,96075.75
2023-01-19T18:57:46.910Z,96071.47
2023-01-19T19:00:51.622Z,96073.06
2023-01-19T19:03:57.168Z,96074.78
2023-01-19T19:07:01.817Z,96074.00
2023-01-19T19:10:06.836Z,96045.22
2023-01-19T19:13:13.071Z,96072.38
2023-01-19T19:16:17.578Z,96075.75
2023-01-19T19:19:22.190Z,96074.16
2023-01-19T19:22:26.728Z,96079.16
2023-01-19T19:25:32.211Z,96074.97
2023-01-19T19:28:38.419Z,96075.81
2023-01-19T19:31:42.966Z,96074.97
2023-01-19T19:34:52.576Z,96063.06
2023-01-19T19:37:57.682Z,96075.81
2023-01-19T19:41:06.982Z,96086.03
2023-01-19T19:44:14.173Z,96082.66
2023-01-19T19:47:19.190Z,96086.06
2023-01-19T19:50:23.788Z,96088.59
2023-01-19T19:53:28.449Z,96093.72
2023-01-19T19:56:34.284Z,96088.63
2023-01-19T19:59:38.900Z,96090.34
2023-01-19T20:02:43.520Z,96095.44
2023-01-19T20:05:48.124Z,96080.16
2023-01-19T20:08:55.330Z,96097.09
2023-01-19T20:11:59.942Z,96091.16
2023-01-19T20:15:04.789Z,96091.16
2023-01-19T20:18:09.392Z,96098.78
2023-01-19T20:21:18.712Z,96094.53
2023-01-19T20:24:23.277Z,96099.66
2023-01-19T20:27:27.749Z,96092.84
2023-01-19T20:30:32.398Z,96087.75
2023-01-19T20:33:37.112Z,96086.94
2023-01-19T20:36:42.277Z,96087.78
2023-01-19T20:39:46.780Z,96091.19
2023-01-19T20:42:51.350Z,96092.88
2023-01-19T20:45:55.934Z,96097.94
2023-01-19T20:49:00.446Z,96104.75
2023-01-19T20:52:05.074Z,96108.97
2023-01-19T20:55:10.404Z,96100.47
2023-01-19T20:58:15.079Z,96086.88
2023-01-19T21:01:23.358Z,96103.06
2023-01-19T21:04:27.995Z,96105.59
2023-01-19T21:07:32.601Z,96107.28
2023-01-19T21:10:37.187Z,96095.41
2023-01-19T21:13:41.712Z,96092.84
2023-01-19T21:16:46.261Z,96085.09
2023-01-19T21:19:50.797Z,96081.72
2023-01-19T21:22:56.691Z,96078.31
2023-01-19T21:26:01.760Z,96089.41
2023-01-19T21:29:06.254Z,96088.56
2023-01-19T21:32:10.858Z,96082.66
2023-01-19T21:38:55.571Z,96092.84
2023-01-19T21:42:00.238Z,96100.50
2023-01-19T21:45:05.215Z,96097.97
2023-01-19T21:48:12.899Z,96088.63
2023-01-19T21:51:17.516Z,96100.50
2023-01-19T21:54:22.035Z,96102.22
2023-01-19T21:57:26.547Z,96110.69
2023-01-19T22:00:31.568Z,96112.38
2023-01-19T22:03:36.350Z,96103.91
2023-01-19T22:06:40.943Z,96120.03
2023-01-19T22:09:45.418Z,96119.16
2023-01-19T22:12:49.948Z,96128.50
2023-01-19T22:16:00.604Z,96137.84
2023-01-19T22:19:07.577Z,96147.19
2023-01-19T22:22:12.103Z,96148.00
2023-01-19T22:25:16.624Z,96144.63
2023-01-19T22:28:21.144Z,96142.94
2023-01-19T22:31:27.057Z,96157.38
2023-01-19T22:34:32.616Z,96159.94
2023-01-19T22:37:37.645Z,96166.69
2023-01-19T22:40:42.145Z,96166.69
2023-01-19T22:43:47.916Z,96172.66
2023-01-19T22:46:55.117Z,96176.03
2023-01-19T22:49:59.647Z,96179.44
2023-01-19T22:53:04.195Z,96180.31
2023-01-19T22:56:39.310Z,96170.09
2023-01-19T22:59:43.927Z,96178.59
2023-01-19T23:02:48.392Z,96177.72
2023-01-19T23:05:53.011Z,96171.78
2023-01-19T23:08:59.801Z,96171.81
2023-01-19T23:12:04.638Z,96153.13
2023-01-19T23:15:10.419Z,96151.41
2023-01-19T23:18:16.552Z,96142.94
2023-01-19T23:21:22.854Z,96144.53
2023-01-19T23:24:27.468Z,96145.47
2023-01-19T23:27:31.980Z,96142.94
2023-01-19T23:30:36.556Z,96137.84
2023-01-19T23:33:41.522Z,96130.16
2023-01-19T23:36:46.142Z,96126.72
2023-01-19T23:39:50.740Z,96131.03
2023-01-19T23:42:55.275Z,96114.88
2023-01-19T23:46:04.827Z,96108.91
2023-01-19T23:49:09.353Z,96103.84
2023-01-19T23:52:15.842Z,96081.84
2023-01-19T23:55:20.403Z,96095.41
2023-01-19T23:58:24.881Z,96098.78
